sensor_id;sensor_type;location;lat;lon;timestamp;temperature;humidity
5192;DHT22;2615;44.524;11.284;2023-02-01T00:00:55;5.90;53.50
5192;DHT22;2615;44.524;11.284;2023-02-01T00:03:23;5.90;53.40
5192;DHT22;2615;44.524;11.284;2023-02-01T00:05:55;5.90;53.40
5192;DHT22;2615;44.524;11.284;2023-02-01T00:08:25;5.90;53.30
5192;DHT22;2615;44.524;11.284;2023-02-01T00:11:00;5.90;53.30
5192;DHT22;2615;44.524;11.284;2023-02-01T00:13:29;5.90;53.30
5192;DHT22;2615;44.524;11.284;2023-02-01T00:16:03;5.80;53.20
5192;DHT22;2615;44.524;11.284;2023-02-01T00:18:31;5.80;53.10
5192;DHT22;2615;44.524;11.284;2023-02-01T00:21:00;5.80;53.10
5192;DHT22;2615;44.524;11.284;2023-02-01T00:23:32;5.80;53.10
5192;DHT22;2615;44.524;11.284;2023-02-01T00:26:01;5.80;53.10
5192;DHT22;2615;44.524;11.284;2023-02-01T00:28:29;5.70;53.00
5192;DHT22;2615;44.524;11.284;2023-02-01T00:30:57;5.70;53.00
5192;DHT22;2615;44.524;11.284;2023-02-01T00:33:26;5.70;53.60
5192;DHT22;2615;44.524;11.284;2023-02-01T00:35:56;5.60;52.90
5192;DHT22;2615;44.524;11.284;2023-02-01T00:38:25;5.60;52.90
5192;DHT22;2615;44.524;11.284;2023-02-01T00:40:54;5.60;52.80
5192;DHT22;2615;44.524;11.284;2023-02-01T00:43:22;5.60;52.80
5192;DHT22;2615;44.524;11.284;2023-02-01T00:45:51;5.60;52.80
5192;DHT22;2615;44.524;11.284;2023-02-01T00:48:19;5.50;52.70
5192;DHT22;2615;44.524;11.284;2023-02-01T00:50:47;5.50;52.80
5192;DHT22;2615;44.524;11.284;2023-02-01T00:53:15;5.50;52.70
5192;DHT22;2615;44.524;11.284;2023-02-01T00:55:44;5.50;52.70
5192;DHT22;2615;44.524;11.284;2023-02-01T00:58:14;5.50;52.60
5192;DHT22;2615;44.524;11.284;2023-02-01T01:00:42;5.50;52.60
5192;DHT22;2615;44.524;11.284;2023-02-01T01:03:10;5.50;52.60
5192;DHT22;2615;44.524;11.284;2023-02-01T01:05:45;5.40;52.50
5192;DHT22;2615;44.524;11.284;2023-02-01T01:08:14;5.40;52.40
5192;DHT22;2615;44.524;11.284;2023-02-01T01:10:42;5.40;52.50
5192;DHT22;2615;44.524;11.284;2023-02-01T01:13:10;5.40;52.40
5192;DHT22;2615;44.524;11.284;2023-02-01T01:15:40;5.40;52.40
5192;DHT22;2615;44.524;11.284;2023-02-01T01:18:10;5.40;52.40
5192;DHT22;2615;44.524;11.284;2023-02-01T01:20:40;5.40;52.30
5192;DHT22;2615;44.524;11.284;2023-02-01T01:23:08;5.40;52.40
5192;DHT22;2615;44.524;11.284;2023-02-01T01:25:38;5.40;52.30
5192;DHT22;2615;44.524;11.284;2023-02-01T01:28:06;5.40;52.30
5192;DHT22;2615;44.524;11.284;2023-02-01T01:30:34;5.30;52.20
5192;DHT22;2615;44.524;11.284;2023-02-01T01:33:04;5.30;52.20
5192;DHT22;2615;44.524;11.284;2023-02-01T01:35:33;5.40;52.20
5192;DHT22;2615;44.524;11.284;2023-02-01T01:38:02;5.30;52.20
5192;DHT22;2615;44.524;11.284;2023-02-01T01:40:31;5.30;52.20
5192;DHT22;2615;44.524;11.284;2023-02-01T01:42:59;5.30;52.20
5192;DHT22;2615;44.524;11.284;2023-02-01T01:45:28;5.30;52.10
5192;DHT22;2615;44.524;11.284;2023-02-01T01:47:58;5.30;52.20
5192;DHT22;2615;44.524;11.284;2023-02-01T01:50:31;5.30;52.20
5192;DHT22;2615;44.524;11.284;2023-02-01T01:53:03;5.30;52.20
5192;DHT22;2615;44.524;11.284;2023-02-01T01:55:35;5.30;52.20
5192;DHT22;2615;44.524;11.284;2023-02-01T01:58:05;5.30;52.10
5192;DHT22;2615;44.524;11.284;2023-02-01T02:00:34;5.30;52.10
5192;DHT22;2615;44.524;11.284;2023-02-01T02:03:07;5.30;52.20
5192;DHT22;2615;44.524;11.284;2023-02-01T02:05:38;5.20;52.00
5192;DHT22;2615;44.524;11.284;2023-02-01T02:08:06;5.30;52.10
5192;DHT22;2615;44.524;11.284;2023-02-01T02:10:36;5.20;52.10
5192;DHT22;2615;44.524;11.284;2023-02-01T02:13:22;5.20;52.10
5192;DHT22;2615;44.524;11.284;2023-02-01T02:16:04;5.20;52.10
5192;DHT22;2615;44.524;11.284;2023-02-01T02:18:38;5.10;52.00
5192;DHT22;2615;44.524;11.284;2023-02-01T02:21:15;5.10;52.10
5192;DHT22;2615;44.524;11.284;2023-02-01T02:24:13;5.10;52.10
5192;DHT22;2615;44.524;11.284;2023-02-01T02:27:15;5.10;52.10
5192;DHT22;2615;44.524;11.284;2023-02-01T02:33:22;5.00;52.10
5192;DHT22;2615;44.524;11.284;2023-02-01T02:35:59;5.00;52.10
5192;DHT22;2615;44.524;11.284;2023-02-01T02:38:33;5.00;52.10
5192;DHT22;2615;44.524;11.284;2023-02-01T02:41:10;4.90;52.10
5192;DHT22;2615;44.524;11.284;2023-02-01T02:44:05;5.00;52.20
5192;DHT22;2615;44.524;11.284;2023-02-01T02:47:00;4.90;52.10
5192;DHT22;2615;44.524;11.284;2023-02-01T02:49:54;4.90;52.10
5192;DHT22;2615;44.524;11.284;2023-02-01T02:52:45;4.90;52.10
5192;DHT22;2615;44.524;11.284;2023-02-01T02:55:35;4.90;52.10
5192;DHT22;2615;44.524;11.284;2023-02-01T02:58:05;4.80;52.10
5192;DHT22;2615;44.524;11.284;2023-02-01T03:00:53;4.90;52.10
5192;DHT22;2615;44.524;11.284;2023-02-01T03:03:40;4.80;52.10
5192;DHT22;2615;44.524;11.284;2023-02-01T03:06:27;4.80;52.10
5192;DHT22;2615;44.524;11.284;2023-02-01T03:08:57;4.80;52.10
5192;DHT22;2615;44.524;11.284;2023-02-01T03:11:26;4.80;52.20
5192;DHT22;2615;44.524;11.284;2023-02-01T03:14:16;4.80;52.20
5192;DHT22;2615;44.524;11.284;2023-02-01T03:16:47;4.80;52.30
5192;DHT22;2615;44.524;11.284;2023-02-01T03:19:22;4.70;52.20
5192;DHT22;2615;44.524;11.284;2023-02-01T03:21:56;4.80;52.30
5192;DHT22;2615;44.524;11.284;2023-02-01T03:24:31;4.70;52.30
5192;DHT22;2615;44.524;11.284;2023-02-01T03:27:05;4.70;52.30
5192;DHT22;2615;44.524;11.284;2023-02-01T03:29:38;4.70;52.30
5192;DHT22;2615;44.524;11.284;2023-02-01T03:32:08;4.70;52.30
5192;DHT22;2615;44.524;11.284;2023-02-01T03:34:38;4.70;52.40
5192;DHT22;2615;44.524;11.284;2023-02-01T03:37:09;4.70;52.40
5192;DHT22;2615;44.524;11.284;2023-02-01T03:39:43;4.70;52.40
5192;DHT22;2615;44.524;11.284;2023-02-01T03:42:17;4.60;52.40
5192;DHT22;2615;44.524;11.284;2023-02-01T03:44:49;4.60;52.40
5192;DHT22;2615;44.524;11.284;2023-02-01T03:47:22;4.60;52.40
5192;DHT22;2615;44.524;11.284;2023-02-01T03:49:55;4.60;52.50
5192;DHT22;2615;44.524;11.284;2023-02-01T03:52:30;4.60;52.50
5192;DHT22;2615;44.524;11.284;2023-02-01T03:55:01;4.50;52.50
5192;DHT22;2615;44.524;11.284;2023-02-01T03:57:33;4.50;52.50
5192;DHT22;2615;44.524;11.284;2023-02-01T04:00:06;4.50;52.60
5192;DHT22;2615;44.524;11.284;2023-02-01T04:02:36;4.50;52.70
5192;DHT22;2615;44.524;11.284;2023-02-01T04:05:05;4.50;52.70
5192;DHT22;2615;44.524;11.284;2023-02-01T04:07:34;4.50;52.70
5192;DHT22;2615;44.524;11.284;2023-02-01T04:10:03;4.50;52.70
5192;DHT22;2615;44.524;11.284;2023-02-01T04:12:31;4.50;52.80
5192;DHT22;2615;44.524;11.284;2023-02-01T04:14:59;4.50;52.80
5192;DHT22;2615;44.524;11.284;2023-02-01T04:17:28;4.50;52.80
5192;DHT22;2615;44.524;11.284;2023-02-01T04:19:56;4.50;52.80
5192;DHT22;2615;44.524;11.284;2023-02-01T04:22:24;4.50;52.80
5192;DHT22;2615;44.524;11.284;2023-02-01T04:24:54;4.50;52.90
5192;DHT22;2615;44.524;11.284;2023-02-01T04:27:22;4.50;52.90
5192;DHT22;2615;44.524;11.284;2023-02-01T04:29:49;4.50;52.90
5192;DHT22;2615;44.524;11.284;2023-02-01T04:32:18;4.50;52.90
5192;DHT22;2615;44.524;11.284;2023-02-01T04:34:46;4.50;52.90
5192;DHT22;2615;44.524;11.284;2023-02-01T04:37:14;4.50;53.00
5192;DHT22;2615;44.524;11.284;2023-02-01T04:39:42;4.50;53.00
5192;DHT22;2615;44.524;11.284;2023-02-01T04:42:12;4.50;53.00
5192;DHT22;2615;44.524;11.284;2023-02-01T04:44:40;4.50;53.10
5192;DHT22;2615;44.524;11.284;2023-02-01T04:47:08;4.50;53.10
5192;DHT22;2615;44.524;11.284;2023-02-01T04:49:37;4.50;53.20
5192;DHT22;2615;44.524;11.284;2023-02-01T04:52:05;4.50;53.20
5192;DHT22;2615;44.524;11.284;2023-02-01T04:54:33;4.50;53.20
5192;DHT22;2615;44.524;11.284;2023-02-01T04:57:01;4.50;53.30
5192;DHT22;2615;44.524;11.284;2023-02-01T04:59:31;4.50;53.30
5192;DHT22;2615;44.524;11.284;2023-02-01T05:01:59;4.40;53.20
5192;DHT22;2615;44.524;11.284;2023-02-01T05:04:27;4.40;53.30
5192;DHT22;2615;44.524;11.284;2023-02-01T05:06:55;4.40;53.40
5192;DHT22;2615;44.524;11.284;2023-02-01T05:09:23;4.40;53.40
5192;DHT22;2615;44.524;11.284;2023-02-01T05:11:51;4.40;53.40
5192;DHT22;2615;44.524;11.284;2023-02-01T05:14:38;4.40;53.50
5192;DHT22;2615;44.524;11.284;2023-02-01T05:17:06;4.40;53.60
5192;DHT22;2615;44.524;11.284;2023-02-01T05:19:34;4.30;53.60
5192;DHT22;2615;44.524;11.284;2023-02-01T05:22:02;4.30;53.60
5192;DHT22;2615;44.524;11.284;2023-02-01T05:24:30;4.30;53.70
5192;DHT22;2615;44.524;11.284;2023-02-01T05:26:58;4.30;53.70
5192;DHT22;2615;44.524;11.284;2023-02-01T05:29:27;4.30;53.80
5192;DHT22;2615;44.524;11.284;2023-02-01T05:31:56;4.30;53.80
5192;DHT22;2615;44.524;11.284;2023-02-01T05:34:37;4.30;53.90
5192;DHT22;2615;44.524;11.284;2023-02-01T05:37:05;4.30;53.90
5192;DHT22;2615;44.524;11.284;2023-02-01T05:39:33;4.30;53.90
5192;DHT22;2615;44.524;11.284;2023-02-01T05:42:02;4.30;54.00
5192;DHT22;2615;44.524;11.284;2023-02-01T05:44:30;4.30;54.00
5192;DHT22;2615;44.524;11.284;2023-02-01T05:46:59;4.30;54.10
5192;DHT22;2615;44.524;11.284;2023-02-01T05:49:27;4.30;54.10
5192;DHT22;2615;44.524;11.284;2023-02-01T05:51:55;4.30;54.20
5192;DHT22;2615;44.524;11.284;2023-02-01T05:54:26;4.30;54.20
5192;DHT22;2615;44.524;11.284;2023-02-01T05:56:54;4.30;54.20
5192;DHT22;2615;44.524;11.284;2023-02-01T05:59:22;4.20;54.20
5192;DHT22;2615;44.524;11.284;2023-02-01T06:01:50;4.20;54.20
5192;DHT22;2615;44.524;11.284;2023-02-01T06:04:19;4.20;54.20
5192;DHT22;2615;44.524;11.284;2023-02-01T06:06:47;4.20;54.30
5192;DHT22;2615;44.524;11.284;2023-02-01T06:09:17;4.20;54.30
5192;DHT22;2615;44.524;11.284;2023-02-01T06:11:45;4.30;54.50
5192;DHT22;2615;44.524;11.284;2023-02-01T06:14:13;4.20;54.40
5192;DHT22;2615;44.524;11.284;2023-02-01T06:16:41;4.30;54.40
5192;DHT22;2615;44.524;11.284;2023-02-01T06:19:09;4.30;54.50
5192;DHT22;2615;44.524;11.284;2023-02-01T06:21:38;4.30;54.50
5192;DHT22;2615;44.524;11.284;2023-02-01T06:24:07;4.30;54.50
5192;DHT22;2615;44.524;11.284;2023-02-01T06:26:36;4.30;54.50
5192;DHT22;2615;44.524;11.284;2023-02-01T06:29:05;4.30;54.50
5192;DHT22;2615;44.524;11.284;2023-02-01T06:31:34;4.30;54.50
5192;DHT22;2615;44.524;11.284;2023-02-01T06:34:02;4.30;54.60
5192;DHT22;2615;44.524;11.284;2023-02-01T06:36:30;4.30;54.70
5192;DHT22;2615;44.524;11.284;2023-02-01T06:39:00;4.30;54.70
5192;DHT22;2615;44.524;11.284;2023-02-01T06:41:28;4.30;54.70
5192;DHT22;2615;44.524;11.284;2023-02-01T06:43:56;4.30;54.70
5192;DHT22;2615;44.524;11.284;2023-02-01T06:46:24;4.30;54.70
5192;DHT22;2615;44.524;11.284;2023-02-01T06:48:52;4.30;54.70
5192;DHT22;2615;44.524;11.284;2023-02-01T06:51:22;4.30;54.70
5192;DHT22;2615;44.524;11.284;2023-02-01T06:53:51;4.40;54.80
5192;DHT22;2615;44.524;11.284;2023-02-01T06:56:20;4.40;54.80
5192;DHT22;2615;44.524;11.284;2023-02-01T06:58:48;4.40;54.80
5192;DHT22;2615;44.524;11.284;2023-02-01T07:01:17;4.40;54.90
5192;DHT22;2615;44.524;11.284;2023-02-01T07:03:47;4.40;54.90
5192;DHT22;2615;44.524;11.284;2023-02-01T07:06:17;4.40;54.90
5192;DHT22;2615;44.524;11.284;2023-02-01T07:08:45;4.50;55.00
5192;DHT22;2615;44.524;11.284;2023-02-01T07:11:15;4.50;55.00
5192;DHT22;2615;44.524;11.284;2023-02-01T07:13:45;4.50;55.00
5192;DHT22;2615;44.524;11.284;2023-02-01T07:16:15;4.60;55.10
5192;DHT22;2615;44.524;11.284;2023-02-01T07:18:44;4.60;55.10
5192;DHT22;2615;44.524;11.284;2023-02-01T07:21:12;4.70;55.20
5192;DHT22;2615;44.524;11.284;2023-02-01T07:23:41;4.70;55.10
5192;DHT22;2615;44.524;11.284;2023-02-01T07:26:10;4.80;55.30
5192;DHT22;2615;44.524;11.284;2023-02-01T07:28:39;4.80;55.20
5192;DHT22;2615;44.524;11.284;2023-02-01T07:31:10;4.90;55.30
5192;DHT22;2615;44.524;11.284;2023-02-01T07:33:40;4.90;55.30
5192;DHT22;2615;44.524;11.284;2023-02-01T07:36:11;5.00;55.30
5192;DHT22;2615;44.524;11.284;2023-02-01T07:38:40;5.00;55.30
5192;DHT22;2615;44.524;11.284;2023-02-01T07:41:09;5.10;55.40
5192;DHT22;2615;44.524;11.284;2023-02-01T07:43:37;5.10;55.30
5192;DHT22;2615;44.524;11.284;2023-02-01T07:46:06;5.20;55.40
5192;DHT22;2615;44.524;11.284;2023-02-01T07:48:36;5.30;55.50
5192;DHT22;2615;44.524;11.284;2023-02-01T07:51:05;5.40;55.60
5192;DHT22;2615;44.524;11.284;2023-02-01T07:53:34;5.40;55.50
5192;DHT22;2615;44.524;11.284;2023-02-01T07:56:04;5.50;55.60
5192;DHT22;2615;44.524;11.284;2023-02-01T07:58:36;5.70;55.70
5192;DHT22;2615;44.524;11.284;2023-02-01T08:01:04;5.80;55.70
5192;DHT22;2615;44.524;11.284;2023-02-01T08:03:50;6.00;55.80
5192;DHT22;2615;44.524;11.284;2023-02-01T08:06:18;6.10;55.70
5192;DHT22;2615;44.524;11.284;2023-02-01T08:08:47;6.20;55.60
5192;DHT22;2615;44.524;11.284;2023-02-01T08:11:17;6.30;55.60
5192;DHT22;2615;44.524;11.284;2023-02-01T08:13:46;6.40;55.50
5192;DHT22;2615;44.524;11.284;2023-02-01T08:16:16;6.50;55.40
5192;DHT22;2615;44.524;11.284;2023-02-01T08:18:45;6.60;55.50
5192;DHT22;2615;44.524;11.284;2023-02-01T08:21:16;6.70;55.60
5192;DHT22;2615;44.524;11.284;2023-02-01T08:23:44;6.90;55.60
5192;DHT22;2615;44.524;11.284;2023-02-01T08:26:14;7.10;55.50
5192;DHT22;2615;44.524;11.284;2023-02-01T08:28:44;7.20;55.40
5192;DHT22;2615;44.524;11.284;2023-02-01T08:31:15;7.30;55.30
5192;DHT22;2615;44.524;11.284;2023-02-01T08:33:48;7.40;55.30
5192;DHT22;2615;44.524;11.284;2023-02-01T08:36:18;7.50;55.20
5192;DHT22;2615;44.524;11.284;2023-02-01T08:38:46;7.60;55.20
5192;DHT22;2615;44.524;11.284;2023-02-01T08:41:16;7.70;55.20
5192;DHT22;2615;44.524;11.284;2023-02-01T08:43:45;7.80;55.20
5192;DHT22;2615;44.524;11.284;2023-02-01T08:46:14;7.90;55.10
5192;DHT22;2615;44.524;11.284;2023-02-01T08:48:43;8.00;55.20
5192;DHT22;2615;44.524;11.284;2023-02-01T08:51:14;8.10;55.20
5192;DHT22;2615;44.524;11.284;2023-02-01T08:53:43;8.20;55.20
5192;DHT22;2615;44.524;11.284;2023-02-01T08:56:13;8.30;55.20
5192;DHT22;2615;44.524;11.284;2023-02-01T08:58:42;8.40;55.20
5192;DHT22;2615;44.524;11.284;2023-02-01T09:01:12;8.50;55.10
5192;DHT22;2615;44.524;11.284;2023-02-01T09:03:41;8.50;55.00
5192;DHT22;2615;44.524;11.284;2023-02-01T09:06:10;8.50;54.90
5192;DHT22;2615;44.524;11.284;2023-02-01T09:08:39;8.60;55.00
5192;DHT22;2615;44.524;11.284;2023-02-01T09:11:12;8.60;55.00
5192;DHT22;2615;44.524;11.284;2023-02-01T09:13:41;8.60;54.90
5192;DHT22;2615;44.524;11.284;2023-02-01T09:16:09;8.60;54.80
5192;DHT22;2615;44.524;11.284;2023-02-01T09:18:37;8.60;54.90
5192;DHT22;2615;44.524;11.284;2023-02-01T09:21:26;8.60;54.90
5192;DHT22;2615;44.524;11.284;2023-02-01T09:23:54;8.60;54.90
5192;DHT22;2615;44.524;11.284;2023-02-01T09:26:23;8.60;55.00
5192;DHT22;2615;44.524;11.284;2023-02-01T09:28:58;8.60;54.90
5192;DHT22;2615;44.524;11.284;2023-02-01T09:31:27;8.60;54.90
5192;DHT22;2615;44.524;11.284;2023-02-01T09:33:55;8.60;54.90
5192;DHT22;2615;44.524;11.284;2023-02-01T09:36:23;8.60;54.90
5192;DHT22;2615;44.524;11.284;2023-02-01T09:38:52;8.60;54.80
5192;DHT22;2615;44.524;11.284;2023-02-01T09:41:34;8.70;54.80
5192;DHT22;2615;44.524;11.284;2023-02-01T09:44:12;8.70;54.70
5192;DHT22;2615;44.524;11.284;2023-02-01T09:46:45;8.70;54.60
5192;DHT22;2615;44.524;11.284;2023-02-01T09:49:18;8.70;54.60
5192;DHT22;2615;44.524;11.284;2023-02-01T09:51:50;8.70;54.80
5192;DHT22;2615;44.524;11.284;2023-02-01T09:54:20;8.80;54.70
5192;DHT22;2615;44.524;11.284;2023-02-01T09:56:54;8.90;54.70
5192;DHT22;2615;44.524;11.284;2023-02-01T09:59:31;9.00;54.70
5192;DHT22;2615;44.524;11.284;2023-02-01T10:02:03;9.10;54.70
5192;DHT22;2615;44.524;11.284;2023-02-01T10:04:32;9.20;54.70
5192;DHT22;2615;44.524;11.284;2023-02-01T10:07:13;9.30;54.70
5192;DHT22;2615;44.524;11.284;2023-02-01T10:09:56;9.50;55.30
5192;DHT22;2615;44.524;11.284;2023-02-01T10:12:41;9.70;54.70
5192;DHT22;2615;44.524;11.284;2023-02-01T10:15:22;9.90;54.60
5192;DHT22;2615;44.524;11.284;2023-02-01T10:18:05;10.00;53.50
5192;DHT22;2615;44.524;11.284;2023-02-01T10:20:51;10.20;53.50
5192;DHT22;2615;44.524;11.284;2023-02-01T10:23:33;10.40;53.40
5192;DHT22;2615;44.524;11.284;2023-02-01T10:26:05;10.60;53.30
5192;DHT22;2615;44.524;11.284;2023-02-01T10:28:39;10.80;53.20
5192;DHT22;2615;44.524;11.284;2023-02-01T10:31:08;11.00;53.10
5192;DHT22;2615;44.524;11.284;2023-02-01T10:33:41;11.10;52.90
5192;DHT22;2615;44.524;11.284;2023-02-01T10:36:15;11.20;52.70
5192;DHT22;2615;44.524;11.284;2023-02-01T10:38:45;11.40;52.50
5192;DHT22;2615;44.524;11.284;2023-02-01T10:41:15;11.50;52.40
5192;DHT22;2615;44.524;11.284;2023-02-01T10:43:49;11.60;52.10
5192;DHT22;2615;44.524;11.284;2023-02-01T10:46:22;11.80;52.20
5192;DHT22;2615;44.524;11.284;2023-02-01T10:48:53;11.90;52.20
5192;DHT22;2615;44.524;11.284;2023-02-01T10:51:26;12.10;52.20
5192;DHT22;2615;44.524;11.284;2023-02-01T10:53:58;12.40;52.30
5192;DHT22;2615;44.524;11.284;2023-02-01T10:56:28;12.70;52.30
5192;DHT22;2615;44.524;11.284;2023-02-01T10:59:02;13.00;52.10
5192;DHT22;2615;44.524;11.284;2023-02-01T11:01:34;13.20;51.60
5192;DHT22;2615;44.524;11.284;2023-02-01T11:04:05;13.30;51.40
5192;DHT22;2615;44.524;11.284;2023-02-01T11:06:37;13.40;51.30
5192;DHT22;2615;44.524;11.284;2023-02-01T11:09:14;13.60;51.40
5192;DHT22;2615;44.524;11.284;2023-02-01T11:11:56;13.70;51.00
5192;DHT22;2615;44.524;11.284;2023-02-01T11:14:35;13.90;50.90
5192;DHT22;2615;44.524;11.284;2023-02-01T11:17:24;14.10;50.90
5192;DHT22;2615;44.524;11.284;2023-02-01T11:19:57;14.10;50.50
5192;DHT22;2615;44.524;11.284;2023-02-01T11:22:26;14.40;50.80
5192;DHT22;2615;44.524;11.284;2023-02-01T11:24:56;14.60;50.70
5192;DHT22;2615;44.524;11.284;2023-02-01T11:27:26;14.80;50.40
5192;DHT22;2615;44.524;11.284;2023-02-01T11:29:59;15.10;50.30
5192;DHT22;2615;44.524;11.284;2023-02-01T11:32:29;15.20;49.80
5192;DHT22;2615;44.524;11.284;2023-02-01T11:35:00;15.30;49.70
5192;DHT22;2615;44.524;11.284;2023-02-01T11:37:32;15.30;49.30
5192;DHT22;2615;44.524;11.284;2023-02-01T11:40:03;15.40;49.20
5192;DHT22;2615;44.524;11.284;2023-02-01T11:42:32;15.30;48.80
5192;DHT22;2615;44.524;11.284;2023-02-01T11:45:24;15.30;48.50
5192;DHT22;2615;44.524;11.284;2023-02-01T11:47:53;15.20;48.20
5192;DHT22;2615;44.524;11.284;2023-02-01T11:50:28;15.10;48.30
5192;DHT22;2615;44.524;11.284;2023-02-01T11:53:08;14.90;48.00
5192;DHT22;2615;44.524;11.284;2023-02-01T11:55:53;14.90;48.10
5192;DHT22;2615;44.524;11.284;2023-02-01T11:58:48;14.90;48.10
5192;DHT22;2615;44.524;11.284;2023-02-01T12:01:41;15.00;48.10
5192;DHT22;2615;44.524;11.284;2023-02-01T12:07:19;15.30;48.00
5192;DHT22;2615;44.524;11.284;2023-02-01T12:09:57;15.60;48.20
5192;DHT22;2615;44.524;11.284;2023-02-01T12:12:35;16.00;48.20
5192;DHT22;2615;44.524;11.284;2023-02-01T12:15:16;16.40;48.30
5192;DHT22;2615;44.524;11.284;2023-02-01T12:21:06;17.80;48.10
5192;DHT22;2615;44.524;11.284;2023-02-01T12:23:53;18.90;47.80
5192;DHT22;2615;44.524;11.284;2023-02-01T12:26:40;19.90;47.50
5192;DHT22;2615;44.524;11.284;2023-02-01T12:29:32;21.10;46.90
5192;DHT22;2615;44.524;11.284;2023-02-01T12:32:13;22.10;45.90
5192;DHT22;2615;44.524;11.284;2023-02-01T12:37:57;23.80;44.40
5192;DHT22;2615;44.524;11.284;2023-02-01T12:40:39;24.50;43.60
5192;DHT22;2615;44.524;11.284;2023-02-01T12:43:13;25.20;42.80
5192;DHT22;2615;44.524;11.284;2023-02-01T12:45:52;25.80;42.10
5192;DHT22;2615;44.524;11.284;2023-02-01T12:50:59;27.00;40.00
5192;DHT22;2615;44.524;11.284;2023-02-01T12:53:37;27.00;39.30
5192;DHT22;2615;44.524;11.284;2023-02-01T12:56:16;27.30;38.40
5192;DHT22;2615;44.524;11.284;2023-02-01T12:58:49;27.20;37.90
5192;DHT22;2615;44.524;11.284;2023-02-01T13:01:21;27.00;37.50
5192;DHT22;2615;44.524;11.284;2023-02-01T13:03:56;26.80;37.10
5192;DHT22;2615;44.524;11.284;2023-02-01T13:06:31;26.80;37.00
5192;DHT22;2615;44.524;11.284;2023-02-01T13:09:03;27.10;36.70
5192;DHT22;2615;44.524;11.284;2023-02-01T13:11:34;27.40;36.30
5192;DHT22;2615;44.524;11.284;2023-02-01T13:14:05;27.70;35.70
5192;DHT22;2615;44.524;11.284;2023-02-01T13:16:38;27.90;35.10
5192;DHT22;2615;44.524;11.284;2023-02-01T13:21:43;28.00;33.60
5192;DHT22;2615;44.524;11.284;2023-02-01T13:24:27;28.10;33.80
5192;DHT22;2615;44.524;11.284;2023-02-01T13:26:57;28.00;33.20
5192;DHT22;2615;44.524;11.284;2023-02-01T13:29:25;27.90;33.40
5192;DHT22;2615;44.524;11.284;2023-02-01T13:32:09;27.70;33.10
5192;DHT22;2615;44.524;11.284;2023-02-01T13:35:03;27.30;32.60
5192;DHT22;2615;44.524;11.284;2023-02-01T13:37:44;26.80;32.60
5192;DHT22;2615;44.524;11.284;2023-02-01T13:40:33;26.20;32.80
5192;DHT22;2615;44.524;11.284;2023-02-01T13:43:09;25.40;32.80
5192;DHT22;2615;44.524;11.284;2023-02-01T13:45:45;24.70;33.20
5192;DHT22;2615;44.524;11.284;2023-02-01T13:48:23;24.10;33.40
5192;DHT22;2615;44.524;11.284;2023-02-01T13:50:55;23.40;33.40
5192;DHT22;2615;44.524;11.284;2023-02-01T13:53:28;23.00;33.90
5192;DHT22;2615;44.524;11.284;2023-02-01T13:55:59;22.80;34.20
5192;DHT22;2615;44.524;11.284;2023-02-01T13:58:34;22.60;34.30
5192;DHT22;2615;44.524;11.284;2023-02-01T14:04:45;22.10;34.30
5192;DHT22;2615;44.524;11.284;2023-02-01T14:07:21;21.80;34.70
5192;DHT22;2615;44.524;11.284;2023-02-01T14:09:51;21.50;35.00
5192;DHT22;2615;44.524;11.284;2023-02-01T14:12:43;21.30;35.10
5192;DHT22;2615;44.524;11.284;2023-02-01T14:15:27;20.90;34.80
5192;DHT22;2615;44.524;11.284;2023-02-01T14:17:55;20.50;35.00
5192;DHT22;2615;44.524;11.284;2023-02-01T14:20:45;20.30;35.40
5192;DHT22;2615;44.524;11.284;2023-02-01T14:23:26;20.10;35.70
5192;DHT22;2615;44.524;11.284;2023-02-01T14:26:11;19.80;35.80
5192;DHT22;2615;44.524;11.284;2023-02-01T14:29:02;19.60;36.10
5192;DHT22;2615;44.524;11.284;2023-02-01T14:31:52;19.30;36.30
5192;DHT22;2615;44.524;11.284;2023-02-01T14:34:28;19.10;36.60
5192;DHT22;2615;44.524;11.284;2023-02-01T14:36:58;19.00;37.50
5192;DHT22;2615;44.524;11.284;2023-02-01T14:39:35;18.90;37.00
5192;DHT22;2615;44.524;11.284;2023-02-01T14:42:19;19.00;37.30
5192;DHT22;2615;44.524;11.284;2023-02-01T14:44:49;19.10;37.50
5192;DHT22;2615;44.524;11.284;2023-02-01T14:47:33;19.10;37.40
5192;DHT22;2615;44.524;11.284;2023-02-01T14:50:22;19.10;37.50
5192;DHT22;2615;44.524;11.284;2023-02-01T14:53:02;19.00;37.50
5192;DHT22;2615;44.524;11.284;2023-02-01T14:55:36;19.00;37.70
5192;DHT22;2615;44.524;11.284;2023-02-01T14:58:15;19.10;37.90
5192;DHT22;2615;44.524;11.284;2023-02-01T15:00:52;19.10;38.10
5192;DHT22;2615;44.524;11.284;2023-02-01T15:06:25;19.20;38.00
5192;DHT22;2615;44.524;11.284;2023-02-01T15:08:55;19.00;37.80
5192;DHT22;2615;44.524;11.284;2023-02-01T15:11:25;18.80;38.00
5192;DHT22;2615;44.524;11.284;2023-02-01T15:13:54;18.70;38.30
5192;DHT22;2615;44.524;11.284;2023-02-01T15:16:24;18.80;38.50
5192;DHT22;2615;44.524;11.284;2023-02-01T15:19:09;18.80;38.60
5192;DHT22;2615;44.524;11.284;2023-02-01T15:21:45;19.00;38.60
5192;DHT22;2615;44.524;11.284;2023-02-01T15:24:14;19.10;38.60
5192;DHT22;2615;44.524;11.284;2023-02-01T15:26:46;18.90;38.40
5192;DHT22;2615;44.524;11.284;2023-02-01T15:29:17;18.50;38.30
5192;DHT22;2615;44.524;11.284;2023-02-01T15:31:47;18.10;38.30
5192;DHT22;2615;44.524;11.284;2023-02-01T15:34:16;17.60;38.50
5192;DHT22;2615;44.524;11.284;2023-02-01T15:36:45;17.20;38.80
5192;DHT22;2615;44.524;11.284;2023-02-01T15:39:29;16.80;39.00
5192;DHT22;2615;44.524;11.284;2023-02-01T15:42:00;16.40;39.30
5192;DHT22;2615;44.524;11.284;2023-02-01T15:44:34;16.10;39.60
5192;DHT22;2615;44.524;11.284;2023-02-01T15:47:12;15.70;39.90
5192;DHT22;2615;44.524;11.284;2023-02-01T15:49:44;15.50;40.20
5192;DHT22;2615;44.524;11.284;2023-02-01T15:54:49;15.00;40.40
5192;DHT22;2615;44.524;11.284;2023-02-01T15:57:21;14.70;41.00
5192;DHT22;2615;44.524;11.284;2023-02-01T15:59:59;14.40;41.20
5192;DHT22;2615;44.524;11.284;2023-02-01T16:02:34;14.20;41.60
5192;DHT22;2615;44.524;11.284;2023-02-01T16:05:06;14.10;41.90
5192;DHT22;2615;44.524;11.284;2023-02-01T16:07:58;13.70;41.70
5192;DHT22;2615;44.524;11.284;2023-02-01T16:10:31;13.60;42.30
5192;DHT22;2615;44.524;11.284;2023-02-01T16:13:05;13.40;42.50
5192;DHT22;2615;44.524;11.284;2023-02-01T16:15:35;13.30;42.70
5192;DHT22;2615;44.524;11.284;2023-02-01T16:18:03;13.20;43.00
5192;DHT22;2615;44.524;11.284;2023-02-01T16:20:31;13.00;43.20
5192;DHT22;2615;44.524;11.284;2023-02-01T16:23:02;12.80;43.40
5192;DHT22;2615;44.524;11.284;2023-02-01T16:25:31;12.70;43.70
5192;DHT22;2615;44.524;11.284;2023-02-01T16:27:59;12.60;44.00
5192;DHT22;2615;44.524;11.284;2023-02-01T16:30:27;12.40;44.10
5192;DHT22;2615;44.524;11.284;2023-02-01T16:32:59;12.30;44.30
5192;DHT22;2615;44.524;11.284;2023-02-01T16:35:31;12.20;44.60
5192;DHT22;2615;44.524;11.284;2023-02-01T16:38:03;12.10;44.80
5192;DHT22;2615;44.524;11.284;2023-02-01T16:40:35;11.90;44.90
5192;DHT22;2615;44.524;11.284;2023-02-01T16:43:11;11.80;45.10
5192;DHT22;2615;44.524;11.284;2023-02-01T16:45:39;11.60;45.30
5192;DHT22;2615;44.524;11.284;2023-02-01T16:48:19;11.50;45.50
5192;DHT22;2615;44.524;11.284;2023-02-01T16:50:51;11.40;45.80
5192;DHT22;2615;44.524;11.284;2023-02-01T16:53:20;11.30;45.90
5192;DHT22;2615;44.524;11.284;2023-02-01T16:55:49;11.20;46.10
5192;DHT22;2615;44.524;11.284;2023-02-01T16:58:19;11.00;46.30